sensor_id;sensor_type;location;lat;lon;timestamp;P1;durP1;ratioP1;P2;durP2;ratioP2
25125;SDS011;13106;50.808;5.670;2022-12-08T00:00:51;20.23;;;12.25;;
25125;SDS011;13106;50.808;5.670;2022-12-08T00:03:17;17.55;;;12.15;;
25125;SDS011;13106;50.808;5.670;2022-12-08T00:05:44;18.23;;;10.68;;
25125;SDS011;13106;50.808;5.670;2022-12-08T00:08:29;20.90;;;12.20;;
25125;SDS011;13106;50.808;5.670;2022-12-08T00:11:14;21.70;;;12.95;;
25125;SDS011;13106;50.808;5.670;2022-12-08T00:13:40;20.00;;;12.77;;
25125;SDS011;13106;50.808;5.670;2022-12-08T00:16:06;20.13;;;12.35;;
25125;SDS011;13106;50.808;5.670;2022-12-08T00:18:32;18.20;;;12.15;;
25125;SDS011;13106;50.808;5.670;2022-12-08T00:20:59;21.58;;;12.60;;
25125;SDS011;13106;50.808;5.670;2022-12-08T00:23:25;17.17;;;12.15;;
25125;SDS011;13106;50.808;5.670;2022-12-08T00:25:51;21.83;;;12.63;;
25125;SDS011;13106;50.808;5.670;2022-12-08T00:28:17;21.60;;;13.02;;
25125;SDS011;13106;50.808;5.670;2022-12-08T00:30:43;19.88;;;11.45;;
25125;SDS011;13106;50.808;5.670;2022-12-08T00:33:09;23.48;;;12.52;;
25125;SDS011;13106;50.808;5.670;2022-12-08T00:35:36;20.02;;;12.68;;
25125;SDS011;13106;50.808;5.670;2022-12-08T00:38:02;17.50;;;11.88;;
25125;SDS011;13106;50.808;5.670;2022-12-08T00:40:28;18.98;;;12.55;;
25125;SDS011;13106;50.808;5.670;2022-12-08T00:42:54;18.90;;;12.38;;
25125;SDS011;13106;50.808;5.670;2022-12-08T00:45:20;18.80;;;12.73;;
25125;SDS011;13106;50.808;5.670;2022-12-08T00:47:46;20.88;;;12.32;;
25125;SDS011;13106;50.808;5.670;2022-12-08T00:50:13;17.02;;;12.45;;
25125;SDS011;13106;50.808;5.670;2022-12-08T00:52:39;20.05;;;13.05;;
25125;SDS011;13106;50.808;5.670;2022-12-08T00:55:05;17.15;;;10.80;;
25125;SDS011;13106;50.808;5.670;2022-12-08T00:57:31;16.65;;;11.48;;
25125;SDS011;13106;50.808;5.670;2022-12-08T00:59:57;16.52;;;11.68;;
25125;SDS011;13106;50.808;5.670;2022-12-08T01:02:23;20.55;;;11.88;;
25125;SDS011;13106;50.808;5.670;2022-12-08T01:04:49;17.23;;;12.38;;
25125;SDS011;13106;50.808;5.670;2022-12-08T01:07:15;17.92;;;11.50;;
25125;SDS011;13106;50.808;5.670;2022-12-08T01:09:41;19.05;;;13.02;;
25125;SDS011;13106;50.808;5.670;2022-12-08T01:12:07;18.00;;;11.98;;
25125;SDS011;13106;50.808;5.670;2022-12-08T01:14:34;19.77;;;11.60;;
25125;SDS011;13106;50.808;5.670;2022-12-08T01:17:01;19.42;;;12.05;;
25125;SDS011;13106;50.808;5.670;2022-12-08T01:19:27;21.48;;;13.70;;
25125;SDS011;13106;50.808;5.670;2022-12-08T01:21:54;22.90;;;14.20;;
25125;SDS011;13106;50.808;5.670;2022-12-08T01:24:20;20.83;;;13.98;;
25125;SDS011;13106;50.808;5.670;2022-12-08T01:26:47;21.67;;;12.70;;
25125;SDS011;13106;50.808;5.670;2022-12-08T01:29:13;20.55;;;12.57;;
25125;SDS011;13106;50.808;5.670;2022-12-08T01:31:39;20.33;;;13.50;;
25125;SDS011;13106;50.808;5.670;2022-12-08T01:34:05;26.05;;;15.15;;
25125;SDS011;13106;50.808;5.670;2022-12-08T01:36:32;22.95;;;14.52;;
25125;SDS011;13106;50.808;5.670;2022-12-08T01:39:01;27.35;;;16.10;;
25125;SDS011;13106;50.808;5.670;2022-12-08T01:41:31;22.65;;;15.38;;
25125;SDS011;13106;50.808;5.670;2022-12-08T01:46:23;25.63;;;15.48;;
25125;SDS011;13106;50.808;5.670;2022-12-08T01:48:50;27.30;;;16.00;;
25125;SDS011;13106;50.808;5.670;2022-12-08T01:51:18;34.42;;;17.63;;
25125;SDS011;13106;50.808;5.670;2022-12-08T01:53:44;32.70;;;17.35;;
25125;SDS011;13106;50.808;5.670;2022-12-08T01:56:12;28.88;;;17.80;;
25125;SDS011;13106;50.808;5.670;2022-12-08T01:58:42;31.70;;;18.88;;
25125;SDS011;13106;50.808;5.670;2022-12-08T02:01:09;35.83;;;18.58;;
25125;SDS011;13106;50.808;5.670;2022-12-08T02:03:43;34.97;;;19.33;;
25125;SDS011;13106;50.808;5.670;2022-12-08T02:06:10;37.80;;;21.13;;
25125;SDS011;13106;50.808;5.670;2022-12-08T02:08:37;34.50;;;19.13;;
25125;SDS011;13106;50.808;5.670;2022-12-08T02:11:12;38.80;;;19.45;;
25125;SDS011;13106;50.808;5.670;2022-12-08T02:13:39;36.42;;;21.20;;
25125;SDS011;13106;50.808;5.670;2022-12-08T02:21:18;44.53;;;24.52;;
25125;SDS011;13106;50.808;5.670;2022-12-08T02:24:00;38.05;;;21.27;;
25125;SDS011;13106;50.808;5.670;2022-12-08T02:37:00;42.83;;;22.52;;
25125;SDS011;13106;50.808;5.670;2022-12-08T02:44:56;47.30;;;24.48;;
25125;SDS011;13106;50.808;5.670;2022-12-08T02:47:24;43.78;;;23.20;;
25125;SDS011;13106;50.808;5.670;2022-12-08T02:49:53;44.15;;;24.23;;
25125;SDS011;13106;50.808;5.670;2022-12-08T02:54:46;46.33;;;23.77;;
25125;SDS011;13106;50.808;5.670;2022-12-08T02:57:26;39.65;;;22.25;;
25125;SDS011;13106;50.808;5.670;2022-12-08T03:05:31;46.08;;;24.15;;
25125;SDS011;13106;50.808;5.670;2022-12-08T03:08:06;46.50;;;23.00;;
25125;SDS011;13106;50.808;5.670;2022-12-08T03:13:02;45.90;;;22.67;;
25125;SDS011;13106;50.808;5.670;2022-12-08T03:15:30;52.92;;;24.30;;
25125;SDS011;13106;50.808;5.670;2022-12-08T03:17:57;47.60;;;23.80;;
25125;SDS011;13106;50.808;5.670;2022-12-08T03:20:24;44.90;;;23.58;;
25125;SDS011;13106;50.808;5.670;2022-12-08T03:22:51;47.20;;;24.08;;
25125;SDS011;13106;50.808;5.670;2022-12-08T03:25:20;43.00;;;22.67;;
25125;SDS011;13106;50.808;5.670;2022-12-08T03:27:46;47.55;;;23.88;;
25125;SDS011;13106;50.808;5.670;2022-12-08T03:30:13;50.72;;;25.08;;
25125;SDS011;13106;50.808;5.670;2022-12-08T03:32:41;45.95;;;23.95;;
25125;SDS011;13106;50.808;5.670;2022-12-08T03:35:13;50.05;;;24.60;;
25125;SDS011;13106;50.808;5.670;2022-12-08T03:37:40;50.53;;;23.65;;
25125;SDS011;13106;50.808;5.670;2022-12-08T03:40:07;43.17;;;23.75;;
25125;SDS011;13106;50.808;5.670;2022-12-08T03:42:34;44.78;;;22.98;;
25125;SDS011;13106;50.808;5.670;2022-12-08T03:45:00;41.97;;;20.88;;
25125;SDS011;13106;50.808;5.670;2022-12-08T03:47:26;46.55;;;22.67;;
25125;SDS011;13106;50.808;5.670;2022-12-08T03:49:52;44.30;;;22.88;;
25125;SDS011;13106;50.808;5.670;2022-12-08T03:52:18;43.58;;;22.48;;
25125;SDS011;13106;50.808;5.670;2022-12-08T03:54:44;40.28;;;21.83;;
25125;SDS011;13106;50.808;5.670;2022-12-08T03:57:10;42.65;;;22.30;;
25125;SDS011;13106;50.808;5.670;2022-12-08T03:59:36;46.97;;;22.55;;
25125;SDS011;13106;50.808;5.670;2022-12-08T04:02:02;38.65;;;21.15;;
25125;SDS011;13106;50.808;5.670;2022-12-08T04:04:28;41.95;;;21.55;;
25125;SDS011;13106;50.808;5.670;2022-12-08T04:06:54;43.85;;;21.17;;
25125;SDS011;13106;50.808;5.670;2022-12-08T04:09:20;46.53;;;21.98;;
25125;SDS011;13106;50.808;5.670;2022-12-08T04:11:46;45.90;;;22.50;;
25125;SDS011;13106;50.808;5.670;2022-12-08T04:14:12;38.40;;;19.83;;
25125;SDS011;13106;50.808;5.670;2022-12-08T04:16:38;43.88;;;21.40;;
25125;SDS011;13106;50.808;5.670;2022-12-08T04:19:04;49.28;;;22.52;;
25125;SDS011;13106;50.808;5.670;2022-12-08T04:21:30;46.80;;;21.92;;
25125;SDS011;13106;50.808;5.670;2022-12-08T04:23:56;46.83;;;23.67;;
25125;SDS011;13106;50.808;5.670;2022-12-08T04:26:22;40.97;;;20.42;;
25125;SDS011;13106;50.808;5.670;2022-12-08T04:28:48;42.22;;;19.63;;
25125;SDS011;13106;50.808;5.670;2022-12-08T04:31:14;37.78;;;19.88;;
25125;SDS011;13106;50.808;5.670;2022-12-08T04:33:40;40.03;;;19.65;;
25125;SDS011;13106;50.808;5.670;2022-12-08T04:36:07;41.92;;;21.05;;
25125;SDS011;13106;50.808;5.670;2022-12-08T04:38:33;39.50;;;19.75;;
25125;SDS011;13106;50.808;5.670;2022-12-08T04:40:59;43.03;;;21.15;;
25125;SDS011;13106;50.808;5.670;2022-12-08T04:43:25;36.75;;;19.27;;
25125;SDS011;13106;50.808;5.670;2022-12-08T04:45:52;42.15;;;20.90;;
25125;SDS011;13106;50.808;5.670;2022-12-08T04:48:18;40.53;;;20.13;;
25125;SDS011;13106;50.808;5.670;2022-12-08T04:50:44;38.13;;;19.08;;
25125;SDS011;13106;50.808;5.670;2022-12-08T04:53:11;41.75;;;20.55;;
25125;SDS011;13106;50.808;5.670;2022-12-08T04:55:40;43.22;;;21.55;;
25125;SDS011;13106;50.808;5.670;2022-12-08T04:58:10;45.65;;;21.20;;
25125;SDS011;13106;50.808;5.670;2022-12-08T05:00:36;40.92;;;21.02;;
25125;SDS011;13106;50.808;5.670;2022-12-08T05:03:02;35.95;;;20.95;;
25125;SDS011;13106;50.808;5.670;2022-12-08T05:05:29;37.95;;;20.40;;
25125;SDS011;13106;50.808;5.670;2022-12-08T05:07:55;43.80;;;21.52;;
25125;SDS011;13106;50.808;5.670;2022-12-08T05:10:21;42.13;;;19.63;;
25125;SDS011;13106;50.808;5.670;2022-12-08T05:12:47;41.35;;;20.42;;
25125;SDS011;13106;50.808;5.670;2022-12-08T05:15:13;40.50;;;20.67;;
25125;SDS011;13106;50.808;5.670;2022-12-08T05:17:39;34.72;;;18.33;;
25125;SDS011;13106;50.808;5.670;2022-12-08T05:20:05;41.85;;;19.90;;
25125;SDS011;13106;50.808;5.670;2022-12-08T05:22:31;33.53;;;17.48;;
25125;SDS011;13106;50.808;5.670;2022-12-08T05:24:57;33.40;;;17.25;;
25125;SDS011;13106;50.808;5.670;2022-12-08T05:27:23;37.80;;;18.35;;
25125;SDS011;13106;50.808;5.670;2022-12-08T05:29:49;35.45;;;18.23;;
25125;SDS011;13106;50.808;5.670;2022-12-08T05:32:15;37.78;;;19.48;;
25125;SDS011;13106;50.808;5.670;2022-12-08T05:34:41;36.47;;;18.27;;
25125;SDS011;13106;50.808;5.670;2022-12-08T05:37:07;37.65;;;18.75;;
25125;SDS011;13106;50.808;5.670;2022-12-08T05:39:34;34.53;;;18.75;;
25125;SDS011;13106;50.808;5.670;2022-12-08T05:41:59;34.83;;;19.65;;
25125;SDS011;13106;50.808;5.670;2022-12-08T05:44:26;34.53;;;18.73;;
25125;SDS011;13106;50.808;5.670;2022-12-08T05:46:51;41.60;;;18.50;;
25125;SDS011;13106;50.808;5.670;2022-12-08T05:49:17;37.88;;;19.00;;
25125;SDS011;13106;50.808;5.670;2022-12-08T05:51:43;38.70;;;18.33;;
25125;SDS011;13106;50.808;5.670;2022-12-08T05:54:09;35.35;;;17.42;;
25125;SDS011;13106;50.808;5.670;2022-12-08T05:56:35;35.72;;;18.15;;
25125;SDS011;13106;50.808;5.670;2022-12-08T05:59:04;32.22;;;17.13;;
25125;SDS011;13106;50.808;5.670;2022-12-08T06:01:30;34.30;;;17.38;;
25125;SDS011;13106;50.808;5.670;2022-12-08T06:03:57;37.95;;;18.17;;
25125;SDS011;13106;50.808;5.670;2022-12-08T06:06:23;34.63;;;17.08;;
25125;SDS011;13106;50.808;5.670;2022-12-08T06:08:49;39.40;;;16.73;;
25125;SDS011;13106;50.808;5.670;2022-12-08T06:11:16;33.45;;;17.58;;
25125;SDS011;13106;50.808;5.670;2022-12-08T06:13:43;39.55;;;20.58;;
25125;SDS011;13106;50.808;5.670;2022-12-08T06:16:09;34.55;;;18.45;;
25125;SDS011;13106;50.808;5.670;2022-12-08T06:18:35;43.08;;;20.25;;
25125;SDS011;13106;50.808;5.670;2022-12-08T06:21:04;31.05;;;17.85;;
25125;SDS011;13106;50.808;5.670;2022-12-08T06:23:30;36.22;;;18.23;;
25125;SDS011;13106;50.808;5.670;2022-12-08T06:26:07;38.83;;;18.70;;
25125;SDS011;13106;50.808;5.670;2022-12-08T06:28:35;36.13;;;18.33;;
25125;SDS011;13106;50.808;5.670;2022-12-08T06:31:08;38.33;;;19.30;;
25125;SDS011;13106;50.808;5.670;2022-12-08T06:33:35;33.40;;;18.50;;
25125;SDS011;13106;50.808;5.670;2022-12-08T06:36:02;32.38;;;18.55;;
25125;SDS011;13106;50.808;5.670;2022-12-08T06:38:28;35.20;;;18.05;;
25125;SDS011;13106;50.808;5.670;2022-12-08T06:40:55;35.25;;;18.02;;
25125;SDS011;13106;50.808;5.670;2022-12-08T06:43:21;29.02;;;15.70;;
25125;SDS011;13106;50.808;5.670;2022-12-08T06:45:47;38.33;;;18.00;;
25125;SDS011;13106;50.808;5.670;2022-12-08T06:48:13;35.78;;;18.17;;
25125;SDS011;13106;50.808;5.670;2022-12-08T06:50:40;36.30;;;18.40;;
25125;SDS011;13106;50.808;5.670;2022-12-08T06:53:06;31.88;;;18.23;;
25125;SDS011;13106;50.808;5.670;2022-12-08T06:55:32;33.72;;;18.70;;
25125;SDS011;13106;50.808;5.670;2022-12-08T06:57:58;31.85;;;18.40;;
25125;SDS011;13106;50.808;5.670;2022-12-08T07:00:24;37.92;;;18.42;;
25125;SDS011;13106;50.808;5.670;2022-12-08T07:02:50;29.98;;;17.92;;
25125;SDS011;13106;50.808;5.670;2022-12-08T07:05:16;36.38;;;17.88;;
25125;SDS011;13106;50.808;5.670;2022-12-08T07:07:42;34.95;;;18.85;;
25125;SDS011;13106;50.808;5.670;2022-12-08T07:10:08;32.97;;;19.48;;
25125;SDS011;13106;50.808;5.670;2022-12-08T07:12:34;36.20;;;18.75;;
25125;SDS011;13106;50.808;5.670;2022-12-08T07:15:00;33.25;;;18.73;;
25125;SDS011;13106;50.808;5.670;2022-12-08T07:17:27;38.53;;;19.50;;
25125;SDS011;13106;50.808;5.670;2022-12-08T07:19:52;33.70;;;19.65;;
25125;SDS011;13106;50.808;5.670;2022-12-08T07:22:18;39.70;;;19.88;;
25125;SDS011;13106;50.808;5.670;2022-12-08T07:24:44;37.35;;;20.75;;
25125;SDS011;13106;50.808;5.670;2022-12-08T07:27:10;40.03;;;21.70;;
25125;SDS011;13106;50.808;5.670;2022-12-08T07:29:36;42.40;;;20.30;;
25125;SDS011;13106;50.808;5.670;2022-12-08T07:32:02;34.45;;;19.83;;
25125;SDS011;13106;50.808;5.670;2022-12-08T07:34:29;36.80;;;20.50;;
25125;SDS011;13106;50.808;5.670;2022-12-08T07:36:55;37.58;;;20.02;;
25125;SDS011;13106;50.808;5.670;2022-12-08T07:39:21;40.20;;;21.98;;
25125;SDS011;13106;50.808;5.670;2022-12-08T07:41:47;37.42;;;20.55;;
25125;SDS011;13106;50.808;5.670;2022-12-08T07:44:13;40.00;;;21.95;;
25125;SDS011;13106;50.808;5.670;2022-12-08T07:46:39;41.30;;;21.25;;
25125;SDS011;13106;50.808;5.670;2022-12-08T07:49:05;37.92;;;21.55;;
25125;SDS011;13106;50.808;5.670;2022-12-08T07:51:31;38.88;;;21.63;;
25125;SDS011;13106;50.808;5.670;2022-12-08T07:53:57;36.65;;;20.85;;
25125;SDS011;13106;50.808;5.670;2022-12-08T07:56:23;39.50;;;21.08;;
25125;SDS011;13106;50.808;5.670;2022-12-08T07:58:49;36.90;;;19.92;;
25125;SDS011;13106;50.808;5.670;2022-12-08T08:01:19;41.10;;;22.05;;
25125;SDS011;13106;50.808;5.670;2022-12-08T08:03:45;46.55;;;22.73;;
25125;SDS011;13106;50.808;5.670;2022-12-08T08:06:13;35.88;;;18.75;;
25125;SDS011;13106;50.808;5.670;2022-12-08T08:08:39;37.38;;;20.85;;
25125;SDS011;13106;50.808;5.670;2022-12-08T08:11:05;44.17;;;21.38;;
25125;SDS011;13106;50.808;5.670;2022-12-08T08:13:31;37.88;;;20.90;;
25125;SDS011;13106;50.808;5.670;2022-12-08T08:16:07;42.58;;;20.33;;
25125;SDS011;13106;50.808;5.670;2022-12-08T08:18:34;39.63;;;19.45;;
25125;SDS011;13106;50.808;5.670;2022-12-08T08:21:00;41.72;;;19.95;;
25125;SDS011;13106;50.808;5.670;2022-12-08T08:23:26;34.72;;;19.75;;
25125;SDS011;13106;50.808;5.670;2022-12-08T08:25:52;33.45;;;18.70;;
25125;SDS011;13106;50.808;5.670;2022-12-08T08:28:18;37.58;;;20.65;;
25125;SDS011;13106;50.808;5.670;2022-12-08T08:30:45;39.53;;;22.38;;
25125;SDS011;13106;50.808;5.670;2022-12-08T08:33:11;37.60;;;21.33;;
25125;SDS011;13106;50.808;5.670;2022-12-08T08:35:37;37.63;;;20.42;;
25125;SDS011;13106;50.808;5.670;2022-12-08T08:38:04;37.60;;;21.35;;
25125;SDS011;13106;50.808;5.670;2022-12-08T08:40:30;37.35;;;20.52;;
25125;SDS011;13106;50.808;5.670;2022-12-08T08:42:56;40.00;;;21.38;;
25125;SDS011;13106;50.808;5.670;2022-12-08T08:45:22;35.55;;;20.60;;
25125;SDS011;13106;50.808;5.670;2022-12-08T08:47:48;37.42;;;19.30;;
25125;SDS011;13106;50.808;5.670;2022-12-08T08:50:15;35.58;;;20.52;;
25125;SDS011;13106;50.808;5.670;2022-12-08T08:52:41;35.70;;;18.75;;
25125;SDS011;13106;50.808;5.670;2022-12-08T08:55:07;34.45;;;19.00;;
25125;SDS011;13106;50.808;5.670;2022-12-08T08:57:33;39.55;;;19.13;;
25125;SDS011;13106;50.808;5.670;2022-12-08T08:59:59;35.20;;;19.15;;
25125;SDS011;13106;50.808;5.670;2022-12-08T09:02:26;34.30;;;18.48;;
25125;SDS011;13106;50.808;5.670;2022-12-08T09:04:52;37.58;;;20.08;;
25125;SDS011;13106;50.808;5.670;2022-12-08T09:07:18;35.15;;;18.58;;
25125;SDS011;13106;50.808;5.670;2022-12-08T09:09:44;28.77;;;18.58;;
25125;SDS011;13106;50.808;5.670;2022-12-08T09:12:10;34.72;;;19.83;;
25125;SDS011;13106;50.808;5.670;2022-12-08T09:14:37;31.90;;;19.05;;
25125;SDS011;13106;50.808;5.670;2022-12-08T09:17:03;36.75;;;18.70;;
25125;SDS011;13106;50.808;5.670;2022-12-08T09:19:29;37.25;;;20.40;;
25125;SDS011;13106;50.808;5.670;2022-12-08T09:21:55;34.38;;;18.65;;
25125;SDS011;13106;50.808;5.670;2022-12-08T09:24:21;33.63;;;19.15;;
25125;SDS011;13106;50.808;5.670;2022-12-08T09:26:47;35.22;;;18.63;;
25125;SDS011;13106;50.808;5.670;2022-12-08T09:29:13;35.25;;;18.33;;
25125;SDS011;13106;50.808;5.670;2022-12-08T09:31:41;33.05;;;17.35;;
25125;SDS011;13106;50.808;5.670;2022-12-08T09:34:07;33.75;;;17.77;;
25125;SDS011;13106;50.808;5.670;2022-12-08T09:36:34;34.08;;;17.30;;
25125;SDS011;13106;50.808;5.670;2022-12-08T09:39:00;33.88;;;17.40;;
25125;SDS011;13106;50.808;5.670;2022-12-08T09:41:40;34.55;;;18.67;;
25125;SDS011;13106;50.808;5.670;2022-12-08T09:46:55;28.88;;;17.67;;
25125;SDS011;13106;50.808;5.670;2022-12-08T09:49:24;30.65;;;18.52;;
25125;SDS011;13106;50.808;5.670;2022-12-08T09:51:52;30.50;;;18.13;;
25125;SDS011;13106;50.808;5.670;2022-12-08T09:54:28;30.85;;;17.90;;
25125;SDS011;13106;50.808;5.670;2022-12-08T09:56:56;30.63;;;17.50;;
25125;SDS011;13106;50.808;5.670;2022-12-08T09:59:30;29.65;;;18.98;;
25125;SDS011;13106;50.808;5.670;2022-12-08T10:01:58;31.63;;;17.98;;
25125;SDS011;13106;50.808;5.670;2022-12-08T10:04:32;27.33;;;17.08;;
25125;SDS011;13106;50.808;5.670;2022-12-08T10:07:20;29.00;;;16.67;;
25125;SDS011;13106;50.808;5.670;2022-12-08T10:12:35;29.25;;;17.45;;
25125;SDS011;13106;50.808;5.670;2022-12-08T10:17:47;35.67;;;17.52;;
25125;SDS011;13106;50.808;5.670;2022-12-08T10:20:19;62.28;;;31.25;;
25125;SDS011;13106;50.808;5.670;2022-12-08T10:22:45;31.42;;;16.38;;
25125;SDS011;13106;50.808;5.670;2022-12-08T10:25:19;30.88;;;15.57;;
25125;SDS011;13106;50.808;5.670;2022-12-08T10:27:50;28.77;;;16.00;;
25125;SDS011;13106;50.808;5.670;2022-12-08T10:30:17;28.02;;;16.25;;
25125;SDS011;13106;50.808;5.670;2022-12-08T10:32:46;29.38;;;16.48;;
25125;SDS011;13106;50.808;5.670;2022-12-08T10:35:14;28.00;;;14.97;;
25125;SDS011;13106;50.808;5.670;2022-12-08T10:37:40;27.98;;;14.85;;
25125;SDS011;13106;50.808;5.670;2022-12-08T10:40:16;24.90;;;14.93;;
25125;SDS011;13106;50.808;5.670;2022-12-08T10:42:45;28.58;;;16.83;;
25125;SDS011;13106;50.808;5.670;2022-12-08T10:50:29;34.15;;;15.77;;
25125;SDS011;13106;50.808;5.670;2022-12-08T10:53:09;31.75;;;16.13;;
25125;SDS011;13106;50.808;5.670;2022-12-08T10:58:02;29.67;;;16.55;;
25125;SDS011;13106;50.808;5.670;2022-12-08T11:00:28;25.25;;;14.48;;
25125;SDS011;13106;50.808;5.670;2022-12-08T11:05:25;26.58;;;14.98;;
25125;SDS011;13106;50.808;5.670;2022-12-08T11:07:52;30.30;;;15.70;;
25125;SDS011;13106;50.808;5.670;2022-12-08T11:10:20;28.50;;;15.65;;
25125;SDS011;13106;50.808;5.670;2022-12-08T11:12:47;27.73;;;14.88;;
25125;SDS011;13106;50.808;5.670;2022-12-08T11:15:15;32.40;;;16.17;;
25125;SDS011;13106;50.808;5.670;2022-12-08T11:17:42;30.13;;;16.27;;
25125;SDS011;13106;50.808;5.670;2022-12-08T11:22:42;32.92;;;16.13;;
25125;SDS011;13106;50.808;5.670;2022-12-08T11:25:09;30.50;;;15.38;;
25125;SDS011;13106;50.808;5.670;2022-12-08T11:27:36;23.95;;;14.48;;
25125;SDS011;13106;50.808;5.670;2022-12-08T11:30:11;26.77;;;14.90;;
25125;SDS011;13106;50.808;5.670;2022-12-08T11:32:38;25.13;;;13.98;;
25125;SDS011;13106;50.808;5.670;2022-12-08T11:35:07;25.77;;;15.35;;
25125;SDS011;13106;50.808;5.670;2022-12-08T11:37:36;26.50;;;14.90;;
25125;SDS011;13106;50.808;5.670;2022-12-08T11:40:04;27.00;;;14.38;;
25125;SDS011;13106;50.808;5.670;2022-12-08T11:42:33;25.50;;;15.57;;
25125;SDS011;13106;50.808;5.670;2022-12-08T11:45:02;27.33;;;14.27;;
25125;SDS011;13106;50.808;5.670;2022-12-08T11:50:01;25.13;;;14.60;;
25125;SDS011;13106;50.808;5.670;2022-12-08T11:52:28;25.58;;;13.23;;
25125;SDS011;13106;50.808;5.670;2022-12-08T11:55:02;24.77;;;14.65;;
25125;SDS011;13106;50.808;5.670;2022-12-08T11:57:30;22.30;;;13.10;;
25125;SDS011;13106;50.808;5.670;2022-12-08T11:59:57;23.63;;;13.43;;
25125;SDS011;13106;50.808;5.670;2022-12-08T12:02:31;29.30;;;14.40;;
25125;SDS011;13106;50.808;5.670;2022-12-08T12:05:06;22.48;;;14.20;;
25125;SDS011;13106;50.808;5.670;2022-12-08T12:13:07;21.80;;;12.48;;
25125;SDS011;13106;50.808;5.670;2022-12-08T12:18:26;21.88;;;13.65;;
25125;SDS011;13106;50.808;5.670;2022-12-08T12:23:42;24.17;;;14.25;;
25125;SDS011;13106;50.808;5.670;2022-12-08T12:26:15;24.88;;;12.75;;
25125;SDS011;13106;50.808;5.670;2022-12-08T12:28:43;22.33;;;12.35;;
25125;SDS011;13106;50.808;5.670;2022-12-08T12:31:17;24.55;;;13.00;;
25125;SDS011;13106;50.808;5.670;2022-12-08T12:33:44;23.73;;;12.93;;
25125;SDS011;13106;50.808;5.670;2022-12-08T12:36:11;22.75;;;13.48;;
25125;SDS011;13106;50.808;5.670;2022-12-08T12:38:50;19.45;;;11.70;;
25125;SDS011;13106;50.808;5.670;2022-12-08T12:41:31;22.48;;;13.10;;
25125;SDS011;13106;50.808;5.670;2022-12-08T12:44:07;21.60;;;12.93;;
25125;SDS011;13106;50.808;5.670;2022-12-08T12:51:44;20.80;;;11.60;;
25125;SDS011;13106;50.808;5.670;2022-12-08T12:54:20;19.70;;;11.27;;
25125;SDS011;13106;50.808;5.670;2022-12-08T12:56:48;20.08;;;10.40;;
25125;SDS011;13106;50.808;5.670;2022-12-08T12:59:35;18.80;;;10.65;;
25125;SDS011;13106;50.808;5.670;2022-12-08T13:02:13;15.45;;;9.73;;
25125;SDS011;13106;50.808;5.670;2022-12-08T13:04:40;17.52;;;10.10;;
25125;SDS011;13106;50.808;5.670;2022-12-08T13:07:07;21.10;;;10.00;;
25125;SDS011;13106;50.808;5.670;2022-12-08T13:09:34;22.85;;;10.00;;
25125;SDS011;13106;50.808;5.670;2022-12-08T13:12:09;15.13;;;9.23;;
25125;SDS011;13106;50.808;5.670;2022-12-08T13:14:45;16.88;;;8.60;;
25125;SDS011;13106;50.808;5.670;2022-12-08T13:17:12;14.52;;;8.38;;
25125;SDS011;13106;50.808;5.670;2022-12-08T13:19:40;18.85;;;8.80;;
25125;SDS011;13106;50.808;5.670;2022-12-08T13:24:51;17.77;;;8.70;;
25125;SDS011;13106;50.808;5.670;2022-12-08T13:29:43;15.57;;;7.57;;
25125;SDS011;13106;50.808;5.670;2022-12-08T13:34:52;12.48;;;8.18;;
25125;SDS011;13106;50.808;5.670;2022-12-08T13:37:35;15.55;;;10.00;;
25125;SDS011;13106;50.808;5.670;2022-12-08T13:40:07;17.60;;;10.27;;
25125;SDS011;13106;50.808;5.670;2022-12-08T13:42:47;13.50;;;8.73;;
25125;SDS011;13106;50.808;5.670;2022-12-08T13:45:16;13.00;;;7.53;;
25125;SDS011;13106;50.808;5.670;2022-12-08T13:47:46;14.27;;;8.48;;
25125;SDS011;13106;50.808;5.670;2022-12-08T13:50:14;13.15;;;8.13;;
25125;SDS011;13106;50.808;5.670;2022-12-08T13:52:44;10.43;;;6.73;;
25125;SDS011;13106;50.808;5.670;2022-12-08T13:58:03;11.30;;;4.75;;
25125;SDS011;13106;50.808;5.670;2022-12-08T14:00:29;9.45;;;5.60;;
25125;SDS011;13106;50.808;5.670;2022-12-08T14:02:55;13.50;;;7.25;;
25125;SDS011;13106;50.808;5.670;2022-12-08T14:05:22;13.57;;;7.43;;
25125;SDS011;13106;50.808;5.670;2022-12-08T14:07:50;13.18;;;7.80;;
25125;SDS011;13106;50.808;5.670;2022-12-08T14:10:22;18.95;;;8.60;;
25125;SDS011;13106;50.808;5.670;2022-12-08T14:12:51;16.40;;;9.52;;
25125;SDS011;13106;50.808;5.670;2022-12-08T14:15:19;28.50;;;14.63;;
25125;SDS011;13106;50.808;5.670;2022-12-08T14:17:52;24.85;;;16.17;;
25125;SDS011;13106;50.808;5.670;2022-12-08T14:20:26;15.27;;;8.25;;
25125;SDS011;13106;50.808;5.670;2022-12-08T14:22:52;17.77;;;9.13;;
25125;SDS011;13106;50.808;5.670;2022-12-08T14:25:19;13.05;;;8.43;;
25125;SDS011;13106;50.808;5.670;2022-12-08T14:27:45;13.27;;;7.55;;
25125;SDS011;13106;50.808;5.670;2022-12-08T14:32:42;14.45;;;7.90;;
25125;SDS011;13106;50.808;5.670;2022-12-08T14:37:41;16.52;;;8.63;;
25125;SDS011;13106;50.808;5.670;2022-12-08T14:42:41;16.25;;;8.20;;
25125;SDS011;13106;50.808;5.670;2022-12-08T14:45:09;16.70;;;8.07;;
25125;SDS011;13106;50.808;5.670;2022-12-08T14:47:35;12.52;;;7.65;;
25125;SDS011;13106;50.808;5.670;2022-12-08T14:50:02;12.13;;;7.22;;
25125;SDS011;13106;50.808;5.670;2022-12-08T14:52:29;16.00;;;7.10;;
25125;SDS011;13106;50.808;5.670;2022-12-08T14:54:55;15.70;;;7.22;;
25125;SDS011;13106;50.808;5.670;2022-12-08T14:57:33;14.60;;;7.30;;
25125;SDS011;13106;50.808;5.670;2022-12-08T15:00:05;13.18;;;6.95;;
25125;SDS011;13106;50.808;5.670;2022-12-08T15:02:31;12.75;;;6.53;;
25125;SDS011;13106;50.808;5.670;2022-12-08T15:07:33;15.05;;;7.60;;
25125;SDS011;13106;50.808;5.670;2022-12-08T15:10:08;13.05;;;6.80;;
25125;SDS011;13106;50.808;5.670;2022-12-08T15:12:35;15.13;;;7.35;;
25125;SDS011;13106;50.808;5.670;2022-12-08T15:15:22;10.98;;;6.70;;
25125;SDS011;13106;50.808;5.670;2022-12-08T15:17:48;12.60;;;7.53;;
25125;SDS011;13106;50.808;5.670;2022-12-08T15:23:00;14.20;;;8.50;;
25125;SDS011;13106;50.808;5.670;2022-12-08T15:25:26;16.15;;;8.30;;
25125;SDS011;13106;50.808;5.670;2022-12-08T15:27:52;14.45;;;10.00;;
25125;SDS011;13106;50.808;5.670;2022-12-08T15:30:20;16.23;;;8.77;;
25125;SDS011;13106;50.808;5.670;2022-12-08T15:32:46;15.40;;;7.82;;
25125;SDS011;13106;50.808;5.670;2022-12-08T15:35:16;11.60;;;7.88;;
25125;SDS011;13106;50.808;5.670;2022-12-08T15:37:42;15.25;;;8.02;;
25125;SDS011;13106;50.808;5.670;2022-12-08T15:40:09;12.93;;;7.43;;
25125;SDS011;13106;50.808;5.670;2022-12-08T15:42:39;13.95;;;8.27;;
25125;SDS011;13106;50.808;5.670;2022-12-08T15:45:06;16.77;;;7.75;;
25125;SDS011;13106;50.808;5.670;2022-12-08T15:47:32;17.23;;;7.55;;
25125;SDS011;13106;50.808;5.670;2022-12-08T15:49:58;14.48;;;7.10;;
25125;SDS011;13106;50.808;5.670;2022-12-08T15:52:24;14.63;;;6.95;;
25125;SDS011;13106;50.808;5.670;2022-12-08T15:54:50;14.73;;;6.93;;
25125;SDS011;13106;50.808;5.670;2022-12-08T15:57:21;17.63;;;9.13;;
25125;SDS011;13106;50.808;5.670;2022-12-08T15:59:48;24.23;;;13.05;;
25125;SDS011;13106;50.808;5.670;2022-12-08T16:02:14;23.05;;;13.05;;
25125;SDS011;13106;50.808;5.670;2022-12-08T16:04:41;21.77;;;11.57;;